CheckWX is a tool to help pilots better visualize weather data.  It is not intended as a substitute for an official pre-flight weather briefing.

07:34:15 UTC

KDBN METAR
W H 'bud' Barron Airport
Dublin, Georgia, USA
Current

19 mins ago

KDBN 250715Z AUTO 00000KT 10SM CLR 19/18 A3006 RMK AO2
Observed
May-25 @ 07:15 UTC
Visibility
Flight Rules
VFR
Cloud Levels
  • Clear skies
Temperature
19°C / 66°F
Dewpoint
18°C / 64°F
Humidity
94%
Altimeter
30.06" Hg
Pressure
1017.92 hPa
Previous

39 mins ago

KDBN 250655Z AUTO 00000KT 10SM CLR 20/18 A3006 RMK AO2
Observed
May-25 @ 06:55 UTC
Visibility
Flight Rules
VFR
Cloud Levels
  • Clear skies
Temperature
20°C / 68°F
Dewpoint
18°C / 64°F
Humidity
88%
Altimeter
30.06" Hg
Pressure
1017.92 hPa
Previous

59 mins ago

KDBN 250635Z AUTO 00000KT 10SM SCT025 SCT060 SCT075 20/18 A3007 RMK AO2
Observed
May-25 @ 06:35 UTC
Visibility
Flight Rules
VFR
Cloud Levels
  • Scattered at 2,500' AGL
  • Scattered at 6,000' AGL
  • Scattered at 7,500' AGL
Temperature
20°C / 68°F
Dewpoint
18°C / 64°F
Humidity
88%
Altimeter
30.07" Hg
Pressure
1018.32 hPa